Time;durP1;ratioP1;P1;durP2;ratioP2;P2;SDS_P1;SDS_P2;PMS_P1;PMS_P2;Temp;Humidity;BMP_temperature;BMP_pressure;BME280_temperature;BME280_humidity;BME280_pressure;Samples;Min_cycle;Max_cycle;Signal;HPM_P1;HPM_P2
2022/11/11 08:22:26;;;;;;;10.07;7.45;;;;;;;;;;527140;27;2222;-62
2022/11/11 08:22:41;;;;;;;11.15;7.50;;;;;;;;;;524520;27;1731;-62
2022/11/11 08:22:58;;;;;;;10.80;7.43;;;;;;;;;;526181;27;1436;-62
2022/11/11 08:23:16;;;;;;;8.85;7.20;;;;;;;;;;525142;27;1168;-63
2022/11/11 08:23:31;;;;;;;9.35;7.20;;;;;;;;;;520482;28;1957;-62
2022/11/11 08:23:47;;;;;;;9.30;7.32;;;;;;;;;;523053;28;1378;-63
2022/11/11 08:24:02;;;;;;;9.90;7.60;;;;;;;;;;521966;28;1397;-63
2022/11/11 08:24:18;;;;;;;10.00;7.50;;;;;;;;;;521051;28;1419;-62
2022/11/11 08:24:34;;;;;;;10.20;7.38;;;;;;;;;;521078;28;1264;-63
2022/11/11 08:24:49;;;;;;;10.23;7.40;;;;;;;;;;521199;28;1411;-62
2022/11/11 08:25:10;;;;;;;9.37;7.30;;;;;;;;;;518520;28;1746;-63
2022/11/11 08:25:25;;;;;;;9.20;7.18;;;;;;;;;;518775;28;1190;-62
2022/11/11 08:25:41;;;;;;;8.70;6.82;;;;;;;;;;515743;28;3691;-63
2022/11/11 08:26:08;;;;;;;8.80;6.83;;;;;;;;;;518915;28;1049;-63
2022/11/11 08:26:23;;;;;;;8.77;7.03;;;;;;;;;;517178;28;1546;-63
2022/11/11 08:26:39;;;;;;;9.27;7.37;;;;;;;;;;517917;28;1948;-63
2022/11/11 08:26:54;;;;;;;10.47;7.50;;;;;;;;;;520712;28;1443;-63
2022/11/11 08:28:51;;;;;;;9.88;7.35;;;;;;;;;;509078;28;1744;-63
2022/11/11 08:29:06;;;;;;;10.23;7.30;;;;;;;;;;510235;28;1405;-63
2022/11/11 08:29:22;;;;;;;9.50;7.27;;;;;;;;;;511355;28;1132;-62
2022/11/11 08:29:37;;;;;;;11.67;7.43;;;;;;;;;;512083;28;1268;-62
2022/11/11 08:29:52;;;;;;;11.80;7.18;;;;;;;;;;511152;28;1837;-61
2022/11/11 08:30:09;;;;;;;9.67;6.97;;;;;;;;;;510016;28;1328;-63
2022/11/11 08:30:24;;;;;;;9.98;7.22;;;;;;;;;;512440;28;1197;-63
2022/11/11 08:30:40;;;;;;;9.85;7.35;;;;;;;;;;510222;28;1304;-63
2022/11/11 08:30:58;;;;;;;9.47;7.00;;;;;;;;;;509311;28;1222;-63
2022/11/11 08:31:14;;;;;;;9.18;6.80;;;;;;;;;;510952;28;1156;-63
2022/11/11 08:31:29;;;;;;;9.50;7.00;;;;;;;;;;512497;28;2067;-63
2022/11/11 08:31:45;;;;;;;9.52;7.03;;;;;;;;;;510133;28;1315;-63
2022/11/11 08:32:00;;;;;;;9.82;7.25;;;;;;;;;;511768;28;1131;-63
2022/11/11 08:32:15;;;;;;;10.00;7.17;;;;;;;;;;512249;28;1606;-63
2022/11/11 08:32:31;;;;;;;9.97;6.93;;;;;;;;;;513123;28;1430;-63
2022/11/11 08:32:46;;;;;;;9.30;7.20;;;;;;;;;;511180;28;1319;-63
2022/11/11 08:33:04;;;;;;;9.97;7.47;;;;;;;;;;508901;28;1431;-63
2022/11/11 08:33:28;;;;;;;9.90;7.13;;;;;;;;;;513133;28;1069;-63
2022/11/11 08:33:44;;;;;;;9.82;7.10;;;;;;;;;;511364;28;1559;-63
2022/11/11 08:33:59;;;;;;;9.50;7.20;;;;;;;;;;511163;28;1084;-63
2022/11/11 08:34:15;;;;;;;8.97;7.20;;;;;;;;;;510252;28;1355;-63
2022/11/11 08:34:30;;;;;;;8.47;7.00;;;;;;;;;;511480;28;1740;-63
2022/11/11 08:34:45;;;;;;;8.57;6.93;;;;;;;;;;511793;28;1108;-64
2022/11/11 08:35:01;;;;;;;9.27;6.80;;;;;;;;;;509953;28;1259;-63
2022/11/11 08:35:16;;;;;;;9.90;6.93;;;;;;;;;;510258;28;1159;-63
2022/11/11 08:35:31;;;;;;;8.63;6.70;;;;;;;;;;511055;28;1135;-63
2022/11/11 08:35:47;;;;;;;8.60;6.67;;;;;;;;;;511567;28;1355;-63
2022/11/11 08:36:04;;;;;;;8.73;6.68;;;;;;;;;;512637;28;1210;-62
2022/11/11 08:36:22;;;;;;;8.95;6.40;;;;;;;;;;512630;28;1303;-63
2022/11/11 08:36:37;;;;;;;8.38;6.72;;;;;;;;;;511933;28;1423;-63
2022/11/11 08:36:53;;;;;;;8.43;6.67;;;;;;;;;;511017;28;1240;-63
2022/11/11 08:37:08;;;;;;;9.18;6.70;;;;;;;;;;509553;28;1416;-63
2022/11/11 08:37:23;;;;;;;9.77;6.80;;;;;;;;;;507888;28;1339;-63
2022/11/11 08:37:38;;;;;;;9.77;6.63;;;;;;;;;;506567;29;1257;-63
2022/11/11 08:37:54;;;;;;;10.00;6.73;;;;;;;;;;506509;29;1391;-63
2022/11/11 08:38:09;;;;;;;9.75;6.80;;;;;;;;;;505651;29;1372;-63
2022/11/11 08:38:24;;;;;;;8.90;6.80;;;;;;;;;;506878;29;1424;-63
2022/11/11 08:38:40;;;;;;;8.83;6.90;;;;;;;;;;506873;29;1313;-63
2022/11/11 08:38:55;;;;;;;10.07;7.07;;;;;;;;;;505577;29;1353;-63
2022/11/11 08:39:10;;;;;;;10.70;7.00;;;;;;;;;;507703;29;1084;-63
2022/11/11 08:39:26;;;;;;;9.07;6.40;;;;;;;;;;505778;28;1686;-63
2022/11/11 08:39:41;;;;;;;9.25;6.20;;;;;;;;;;509429;28;1810;-63
2022/11/11 08:39:56;;;;;;;10.40;6.57;;;;;;;;;;509882;28;1406;-63
2022/11/11 08:40:12;;;;;;;9.77;6.90;;;;;;;;;;511032;28;1411;-63
2022/11/11 08:40:27;;;;;;;8.43;6.75;;;;;;;;;;511510;28;1205;-63
2022/11/11 08:40:42;;;;;;;7.60;6.20;;;;;;;;;;508365;28;1205;-63
2022/11/11 08:41:03;;;;;;;7.23;6.03;;;;;;;;;;511619;28;1564;-62
2022/11/11 08:41:20;;;;;;;8.18;6.10;;;;;;;;;;509360;28;1246;-63
2022/11/11 08:41:35;;;;;;;8.10;6.35;;;;;;;;;;513245;28;1243;-62
2022/11/11 08:41:51;;;;;;;7.78;6.47;;;;;;;;;;512235;28;1810;-62
2022/11/11 08:42:06;;;;;;;7.37;6.10;;;;;;;;;;511362;28;1408;-63
2022/11/11 08:42:22;;;;;;;7.03;5.83;;;;;;;;;;511374;28;1371;-63
2022/11/11 08:42:37;;;;;;;7.07;6.07;;;;;;;;;;509056;28;1407;-63
2022/11/11 08:42:56;;;;;;;7.83;6.07;;;;;;;;;;510309;28;1296;-63
2022/11/11 08:43:11;;;;;;;8.32;6.13;;;;;;;;;;510203;28;1327;-63
2022/11/11 08:43:31;;;;;;;7.15;5.90;;;;;;;;;;509953;28;1250;-63
2022/11/11 08:43:46;;;;;;;7.50;6.07;;;;;;;;;;510743;28;1296;-63
2022/11/11 08:44:03;;;;;;;8.82;6.43;;;;;;;;;;509817;28;1479;-63
2022/11/11 08:44:19;;;;;;;8.75;6.55;;;;;;;;;;510036;28;1706;-63
2022/11/11 08:44:34;;;;;;;8.73;6.80;;;;;;;;;;512276;28;1296;-63
2022/11/11 08:44:50;;;;;;;9.43;6.80;;;;;;;;;;512197;28;1299;-63
2022/11/11 08:45:06;;;;;;;9.48;6.78;;;;;;;;;;512384;28;1152;-63
2022/11/11 08:45:22;;;;;;;9.25;6.70;;;;;;;;;;512297;28;1382;-63
2022/11/11 08:45:37;;;;;;;8.85;6.78;;;;;;;;;;509604;28;1478;-63
2022/11/11 08:45:53;;;;;;;8.93;6.88;;;;;;;;;;508363;28;1773;-63
2022/11/11 08:46:10;;;;;;;9.07;7.17;;;;;;;;;;508895;28;1226;-63
2022/11/11 08:46:25;;;;;;;10.27;7.40;;;;;;;;;;511251;28;1189;-63
2022/11/11 08:46:41;;;;;;;9.87;7.13;;;;;;;;;;510988;28;1431;-63
2022/11/11 08:46:56;;;;;;;8.87;7.10;;;;;;;;;;508436;28;1221;-63
2022/11/11 08:47:12;;;;;;;8.90;7.00;;;;;;;;;;511075;28;1995;-64
2022/11/11 08:47:27;;;;;;;8.77;6.87;;;;;;;;;;511110;28;1720;-63
2022/11/11 08:47:43;;;;;;;9.87;7.20;;;;;;;;;;513017;28;1403;-63
2022/11/11 08:47:58;;;;;;;10.10;7.35;;;;;;;;;;513039;28;1112;-62
2022/11/11 08:48:13;;;;;;;9.27;7.20;;;;;;;;;;515670;28;1600;-63
2022/11/11 08:48:30;;;;;;;8.80;7.10;;;;;;;;;;513464;28;1140;-63
2022/11/11 08:48:46;;;;;;;9.35;7.05;;;;;;;;;;513006;28;1221;-63
2022/11/11 08:49:01;;;;;;;10.27;7.30;;;;;;;;;;511826;28;1598;-63
2022/11/11 08:49:17;;;;;;;10.73;7.33;;;;;;;;;;514002;28;1292;-64
2022/11/11 08:49:32;;;;;;;10.20;7.27;;;;;;;;;;513904;28;1315;-63
2022/11/11 08:49:49;;;;;;;9.32;7.07;;;;;;;;;;510944;28;1093;-63
2022/11/11 08:50:06;;;;;;;10.02;7.07;;;;;;;;;;510592;28;1089;-63
2022/11/11 08:50:21;;;;;;;9.90;7.00;;;;;;;;;;510411;28;1470;-64
2022/11/11 08:50:38;;;;;;;9.30;7.10;;;;;;;;;;512405;28;1677;-63
2022/11/11 08:50:53;;;;;;;9.40;7.22;;;;;;;;;;510155;28;1407;-63
2022/11/11 08:51:09;;;;;;;8.93;6.90;;;;;;;;;;511521;28;1442;-63
2022/11/11 08:51:24;;;;;;;9.70;6.80;;;;;;;;;;511913;28;1375;-62
2022/11/11 08:51:39;;;;;;;9.73;7.15;;;;;;;;;;510071;28;1692;-64
2022/11/11 08:51:54;;;;;;;8.73;7.20;;;;;;;;;;512085;28;1630;-63
2022/11/11 08:52:10;;;;;;;9.57;7.53;;;;;;;;;;510191;28;1863;-63
2022/11/11 08:52:25;;;;;;;9.60;7.88;;;;;;;;;;512348;28;1296;-63
2022/11/11 08:52:51;;;;;;;10.07;7.80;;;;;;;;;;514682;28;1355;-64
2022/11/11 08:53:07;;;;;;;9.73;7.40;;;;;;;;;;514723;28;1571;-63
2022/11/11 08:53:23;;;;;;;9.40;7.07;;;;;;;;;;513771;28;1132;-63
2022/11/11 08:53:39;;;;;;;10.40;7.55;;;;;;;;;;513663;28;1252;-63
2022/11/11 08:53:54;;;;;;;10.52;7.53;;;;;;;;;;515671;28;2145;-63
2022/11/11 08:54:10;;;;;;;10.50;7.73;;;;;;;;;;513846;28;1996;-63
2022/11/11 08:54:25;;;;;;;10.15;7.75;;;;;;;;;;514570;28;1363;-63
2022/11/11 08:54:40;;;;;;;9.50;7.37;;;;;;;;;;513241;28;1051;-63
2022/11/11 08:54:56;;;;;;;9.33;7.37;;;;;;;;;;514673;28;1409;-63
2022/11/11 08:55:11;;;;;;;9.13;7.40;;;;;;;;;;515737;28;1283;-63
2022/11/11 08:55:26;;;;;;;9.68;7.20;;;;;;;;;;514511;28;1433;-63
2022/11/11 08:55:41;;;;;;;9.97;7.23;;;;;;;;;;512679;28;1353;-62
2022/11/11 08:56:00;;;;;;;9.50;7.27;;;;;;;;;;515157;28;1311;-63
2022/11/11 08:56:15;;;;;;;9.23;7.10;;;;;;;;;;515553;28;1377;-63
2022/11/11 08:56:30;;;;;;;9.00;7.13;;;;;;;;;;515041;28;1548;-64
2022/11/11 08:56:46;;;;;;;9.00;7.13;;;;;;;;;;513007;28;1162;-63
2022/11/11 08:57:01;;;;;;;9.70;7.35;;;;;;;;;;515601;28;1836;-63
2022/11/11 08:57:16;;;;;;;9.53;7.10;;;;;;;;;;515653;28;1429;-63
2022/11/11 08:57:31;;;;;;;8.77;7.03;;;;;;;;;;515628;28;1260;-63
2022/11/11 08:57:47;;;;;;;8.48;7.18;;;;;;;;;;512363;28;1823;-63
2022/11/11 08:58:06;;;;;;;8.53;7.03;;;;;;;;;;515425;28;1780;-63
2022/11/11 08:58:21;;;;;;;8.88;7.20;;;;;;;;;;513717;28;1224;-63
2022/11/11 08:58:37;;;;;;;8.37;6.67;;;;;;;;;;512327;28;1768;-63
2022/11/11 08:58:52;;;;;;;9.15;6.65;;;;;;;;;;509890;28;1191;-63
2022/11/11 08:59:08;;;;;;;9.20;6.87;;;;;;;;;;511296;28;1439;-63
2022/11/11 08:59:24;;;;;;;9.07;6.72;;;;;;;;;;511645;28;1041;-63
2022/11/11 08:59:39;;;;;;;8.60;6.50;;;;;;;;;;508985;28;1248;-62
2022/11/11 08:59:54;;;;;;;7.63;6.37;;;;;;;;;;510200;28;1114;-64
2022/11/11 09:00:11;;;;;;;7.83;6.50;;;;;;;;;;511595;28;1711;-63
2022/11/11 09:00:27;;;;;;;8.63;6.82;;;;;;;;;;513550;28;1355;-64
2022/11/11 09:00:42;;;;;;;9.38;7.80;;;;;;;;;;512631;28;1163;-63
2022/11/11 09:00:58;;;;;;;8.93;7.87;;;;;;;;;;511678;28;1187;-63
2022/11/11 09:01:14;;;;;;;8.98;7.55;;;;;;;;;;512727;28;1355;-63
2022/11/11 09:01:29;;;;;;;9.75;7.82;;;;;;;;;;514079;28;1359;-63
2022/11/11 09:01:44;;;;;;;9.50;7.70;;;;;;;;;;511783;28;1531;-63
2022/11/11 09:02:00;;;;;;;9.70;8.05;;;;;;;;;;512518;28;1433;-62
2022/11/11 09:02:15;;;;;;;10.43;8.30;;;;;;;;;;512779;28;1124;-63
2022/11/11 09:02:30;;;;;;;10.03;7.57;;;;;;;;;;513052;28;1348;-64
2022/11/11 09:02:46;;;;;;;9.50;7.25;;;;;;;;;;511140;28;1228;-63
2022/11/11 09:03:03;;;;;;;9.00;7.10;;;;;;;;;;512091;28;1291;-63
2022/11/11 09:03:18;;;;;;;9.07;7.22;;;;;;;;;;512039;28;1488;-63
2022/11/11 09:03:33;;;;;;;9.40;7.43;;;;;;;;;;512418;28;1358;-64
2022/11/11 09:03:49;;;;;;;9.27;7.20;;;;;;;;;;509279;28;1312;-63
2022/11/11 09:04:04;;;;;;;9.63;7.30;;;;;;;;;;510782;28;1428;-63
2022/11/11 09:04:19;;;;;;;10.40;7.30;;;;;;;;;;507546;29;1131;-63
2022/11/11 09:04:34;;;;;;;10.07;7.28;;;;;;;;;;507786;29;1385;-64
2022/11/11 09:04:50;;;;;;;9.70;7.43;;;;;;;;;;507137;29;1420;-64
2022/11/11 09:05:05;;;;;;;9.40;7.57;;;;;;;;;;506257;29;2062;-64
2022/11/11 09:05:20;;;;;;;9.05;7.18;;;;;;;;;;507246;28;1227;-64
2022/11/11 09:05:39;;;;;;;9.20;7.00;;;;;;;;;;507849;28;1183;-64
2022/11/11 09:05:56;;;;;;;8.65;6.85;;;;;;;;;;509723;28;1079;-64
2022/11/11 09:06:11;;;;;;;8.75;6.72;;;;;;;;;;510727;28;1364;-64
2022/11/11 09:06:27;;;;;;;8.60;6.60;;;;;;;;;;512139;28;1215;-63
2022/11/11 09:06:44;;;;;;;8.50;6.40;;;;;;;;;;512384;28;2823;-63
2022/11/11 09:06:59;;;;;;;8.13;6.30;;;;;;;;;;511458;28;1623;-63
2022/11/11 09:07:15;;;;;;;8.17;6.33;;;;;;;;;;512506;28;1971;-64
2022/11/11 09:07:30;;;;;;;7.80;6.03;;;;;;;;;;512064;28;1232;-63
2022/11/11 09:07:45;;;;;;;7.17;5.90;;;;;;;;;;512242;28;1816;-63
2022/11/11 09:08:02;;;;;;;8.17;6.30;;;;;;;;;;512499;28;1284;-63
2022/11/11 09:08:18;;;;;;;7.95;6.35;;;;;;;;;;512367;28;1967;-63
2022/11/11 09:08:33;;;;;;;7.57;6.30;;;;;;;;;;511282;28;1471;-64
2022/11/11 09:08:48;;;;;;;7.82;6.00;;;;;;;;;;510398;28;1398;-63
2022/11/11 09:09:04;;;;;;;7.30;5.83;;;;;;;;;;512346;28;1103;-63
2022/11/11 09:09:19;;;;;;;6.63;5.33;;;;;;;;;;510605;28;1399;-63
2022/11/11 09:09:34;;;;;;;6.40;5.10;;;;;;;;;;511864;28;1466;-63
2022/11/11 09:09:49;;;;;;;5.83;5.20;;;;;;;;;;512383;28;1590;-63
2022/11/11 09:10:05;;;;;;;5.63;5.03;;;;;;;;;;510925;28;1196;-63
2022/11/11 09:10:21;;;;;;;6.50;5.10;;;;;;;;;;513061;28;1308;-63
2022/11/11 09:10:36;;;;;;;7.23;5.20;;;;;;;;;;513420;28;1295;-62
2022/11/11 09:10:51;;;;;;;7.47;5.47;;;;;;;;;;512775;28;1173;-63
2022/11/11 09:11:07;;;;;;;7.23;5.30;;;;;;;;;;511093;28;1091;-63
2022/11/11 09:11:22;;;;;;;6.97;4.63;;;;;;;;;;515913;28;1678;-63
2022/11/11 09:11:37;;;;;;;7.30;4.80;;;;;;;;;;513432;28;1358;-63
2022/11/11 09:11:52;;;;;;;7.53;4.93;;;;;;;;;;512629;28;1414;-63
2022/11/11 09:12:08;;;;;;;7.23;4.93;;;;;;;;;;510875;28;1433;-63
2022/11/11 09:12:23;;;;;;;6.63;4.82;;;;;;;;;;511947;28;1082;-63
2022/11/11 09:12:38;;;;;;;6.70;4.77;;;;;;;;;;512804;28;1370;-63
2022/11/11 09:12:57;;;;;;;7.07;5.00;;;;;;;;;;512448;28;1547;-63
2022/11/11 09:13:13;;;;;;;6.28;5.00;;;;;;;;;;510270;28;1128;-62
2022/11/11 09:13:28;;;;;;;5.97;4.88;;;;;;;;;;510707;28;1329;-63
2022/11/11 09:13:43;;;;;;;7.17;5.40;;;;;;;;;;512063;28;1422;-63
2022/11/11 09:13:58;;;;;;;6.90;5.20;;;;;;;;;;511204;28;1228;-63
2022/11/11 09:14:14;;;;;;;5.73;4.50;;;;;;;;;;509633;28;1177;-63
2022/11/11 09:14:29;;;;;;;6.30;4.50;;;;;;;;;;510106;28;1706;-63
2022/11/11 09:14:44;;;;;;;7.13;4.50;;;;;;;;;;511948;28;1351;-63
2022/11/11 09:15:00;;;;;;;7.73;4.80;;;;;;;;;;510967;28;1401;-63
2022/11/11 09:15:15;;;;;;;7.93;5.00;;;;;;;;;;510887;28;1211;-64
2022/11/11 09:15:31;;;;;;;6.80;4.73;;;;;;;;;;511614;28;1183;-63
2022/11/11 09:15:47;;;;;;;5.50;4.50;;;;;;;;;;512862;28;1422;-63
2022/11/11 09:16:02;;;;;;;5.73;4.57;;;;;;;;;;514637;28;1231;-63
2022/11/11 09:16:17;;;;;;;5.77;4.37;;;;;;;;;;514267;28;2105;-63
2022/11/11 09:16:33;;;;;;;5.55;4.22;;;;;;;;;;513495;28;1174;-63
2022/11/11 09:16:48;;;;;;;5.60;4.30;;;;;;;;;;513038;28;1504;-63
2022/11/11 09:17:05;;;;;;;5.47;4.10;;;;;;;;;;514603;28;1335;-63
2022/11/11 09:17:20;;;;;;;6.10;4.20;;;;;;;;;;513740;28;1385;-64
2022/11/11 09:17:35;;;;;;;6.60;4.60;;;;;;;;;;514062;28;1167;-63
2022/11/11 09:17:51;;;;;;;6.70;4.80;;;;;;;;;;512119;28;1599;-63
2022/11/11 09:18:07;;;;;;;7.00;4.90;;;;;;;;;;513736;28;1284;-63
2022/11/11 09:18:23;;;;;;;6.15;4.80;;;;;;;;;;515032;28;1298;-63
2022/11/11 09:18:38;;;;;;;6.40;4.63;;;;;;;;;;514207;28;1120;-63
2022/11/11 09:18:53;;;;;;;6.87;4.57;;;;;;;;;;513928;28;1275;-63
2022/11/11 09:19:09;;;;;;;5.95;4.40;;;;;;;;;;514348;28;1695;-64
2022/11/11 09:19:24;;;;;;;5.53;4.30;;;;;;;;;;512428;28;1706;-63
2022/11/11 09:19:39;;;;;;;5.67;4.50;;;;;;;;;;510806;28;1376;-63
2022/11/11 09:19:54;;;;;;;6.63;5.10;;;;;;;;;;510700;28;1082;-63
2022/11/11 09:20:10;;;;;;;7.25;5.30;;;;;;;;;;509523;28;1187;-63
2022/11/11 09:20:26;;;;;;;6.43;4.70;;;;;;;;;;511183;28;1249;-63
2022/11/11 09:20:41;;;;;;;5.60;4.30;;;;;;;;;;511042;28;1230;-64
2022/11/11 09:20:58;;;;;;;5.60;4.30;;;;;;;;;;510821;28;1569;-64
2022/11/11 09:21:14;;;;;;;6.30;4.57;;;;;;;;;;510381;28;1397;-63
2022/11/11 09:21:29;;;;;;;6.90;4.83;;;;;;;;;;511601;28;1343;-63
2022/11/11 09:21:44;;;;;;;6.63;4.60;;;;;;;;;;512199;28;1426;-63
2022/11/11 09:22:00;;;;;;;6.85;4.60;;;;;;;;;;510615;28;1366;-63
2022/11/11 09:22:15;;;;;;;6.93;4.80;;;;;;;;;;510612;28;1165;-63
2022/11/11 09:22:30;;;;;;;7.23;5.13;;;;;;;;;;510401;28;1636;-64
2022/11/11 09:22:46;;;;;;;7.82;5.43;;;;;;;;;;511559;28;1343;-63
2022/11/11 09:23:02;;;;;;;7.30;5.40;;;;;;;;;;510979;28;1275;-63
2022/11/11 09:23:17;;;;;;;6.80;5.00;;;;;;;;;;510827;28;1143;-64
2022/11/11 09:23:32;;;;;;;6.43;4.93;;;;;;;;;;512016;28;1297;-62
2022/11/11 09:23:47;;;;;;;7.05;5.32;;;;;;;;;;510667;28;1258;-63
2022/11/11 09:24:03;;;;;;;8.53;5.80;;;;;;;;;;510673;28;1289;-63
2022/11/11 09:24:18;;;;;;;9.48;5.95;;;;;;;;;;511321;28;2166;-63
2022/11/11 09:24:34;;;;;;;8.60;5.60;;;;;;;;;;508475;28;1327;-63
2022/11/11 09:24:50;;;;;;;9.30;5.40;;;;;;;;;;507979;28;1443;-63
2022/11/11 09:25:06;;;;;;;11.35;5.63;;;;;;;;;;508996;28;1214;-63
2022/11/11 09:25:22;;;;;;;10.20;6.00;;;;;;;;;;508542;28;1603;-63
2022/11/11 09:25:37;;;;;;;10.50;6.10;;;;;;;;;;510564;28;1389;-63
2022/11/11 09:25:52;;;;;;;9.52;5.63;;;;;;;;;;511168;28;1789;-63
2022/11/11 09:26:08;;;;;;;8.40;5.37;;;;;;;;;;513006;28;1056;-63
2022/11/11 09:26:23;;;;;;;9.53;5.97;;;;;;;;;;513115;28;1461;-63
2022/11/11 09:26:38;;;;;;;11.07;6.90;;;;;;;;;;512461;28;1168;-62
2022/11/11 09:26:54;;;;;;;11.17;6.40;;;;;;;;;;511833;28;1402;-63
2022/11/11 09:27:10;;;;;;;8.53;5.00;;;;;;;;;;511493;28;1245;-63
2022/11/11 09:27:25;;;;;;;7.13;4.78;;;;;;;;;;512485;28;1923;-63
2022/11/11 09:27:41;;;;;;;8.23;5.45;;;;;;;;;;512000;28;1419;-62
2022/11/11 09:27:58;;;;;;;8.75;5.60;;;;;;;;;;512174;28;1177;-62
2022/11/11 09:28:14;;;;;;;8.65;5.40;;;;;;;;;;510494;28;1199;-63
2022/11/11 09:28:32;;;;;;;8.90;4.90;;;;;;;;;;511976;28;1406;-63
2022/11/11 09:28:47;;;;;;;8.50;4.63;;;;;;;;;;511442;28;1301;-63
2022/11/11 09:29:03;;;;;;;7.93;4.77;;;;;;;;;;513195;28;1833;-63
2022/11/11 09:29:18;;;;;;;8.07;5.03;;;;;;;;;;511977;28;1152;-63
2022/11/11 09:29:33;;;;;;;9.33;5.50;;;;;;;;;;512509;28;1136;-63
2022/11/11 09:29:49;;;;;;;9.77;5.50;;;;;;;;;;509898;28;1412;-63
2022/11/11 09:30:05;;;;;;;8.10;5.28;;;;;;;;;;510755;28;1094;-63
2022/11/11 09:30:20;;;;;;;6.50;4.70;;;;;;;;;;509966;28;1227;-63
2022/11/11 09:30:36;;;;;;;6.73;4.40;;;;;;;;;;510763;28;1427;-62
2022/11/11 09:30:51;;;;;;;7.57;4.65;;;;;;;;;;510412;28;1147;-63
2022/11/11 09:31:06;;;;;;;8.10;4.53;;;;;;;;;;511375;28;1229;-63
2022/11/11 09:31:22;;;;;;;7.30;4.20;;;;;;;;;;510636;28;1297;-63
2022/11/11 09:31:38;;;;;;;6.15;4.20;;;;;;;;;;511101;28;1149;-63
2022/11/11 09:31:53;;;;;;;5.63;4.10;;;;;;;;;;513095;28;1216;-63
2022/11/11 09:32:08;;;;;;;7.10;4.33;;;;;;;;;;515319;28;1937;-64
2022/11/11 09:32:24;;;;;;;7.27;4.27;;;;;;;;;;515350;28;1023;-63
2022/11/11 09:32:39;;;;;;;6.13;4.00;;;;;;;;;;514618;28;1210;-63
2022/11/11 09:33:00;;;;;;;6.53;4.37;;;;;;;;;;514627;28;1202;-63
2022/11/11 09:33:18;;;;;;;6.50;4.20;;;;;;;;;;512939;28;1249;-64
2022/11/11 09:33:33;;;;;;;6.22;4.28;;;;;;;;;;510247;28;1058;-63
2022/11/11 09:33:52;;;;;;;6.60;4.37;;;;;;;;;;512003;28;1518;-63
2022/11/11 09:34:07;;;;;;;7.45;4.50;;;;;;;;;;511844;28;1373;-63
2022/11/11 09:34:22;;;;;;;7.47;4.73;;;;;;;;;;507992;28;1491;-63
2022/11/11 09:34:38;;;;;;;7.27;4.77;;;;;;;;;;508531;29;1634;-63
2022/11/11 09:34:56;;;;;;;7.82;5.18;;;;;;;;;;508496;29;1595;-63
2022/11/11 09:35:11;;;;;;;10.68;6.40;;;;;;;;;;508760;28;1303;-63
2022/11/11 09:35:26;;;;;;;11.10;6.50;;;;;;;;;;509500;28;1222;-64
2022/11/11 09:35:41;;;;;;;10.73;6.20;;;;;;;;;;511039;28;1301;-63
2022/11/11 09:35:58;;;;;;;9.87;5.67;;;;;;;;;;509607;28;1439;-63
2022/11/11 09:36:13;;;;;;;7.15;4.70;;;;;;;;;;510702;28;1388;-63
2022/11/11 09:36:28;;;;;;;5.90;4.30;;;;;;;;;;512202;28;1493;-63
2022/11/11 09:36:44;;;;;;;6.07;4.10;;;;;;;;;;513276;28;1306;-64
2022/11/11 09:36:59;;;;;;;5.68;4.00;;;;;;;;;;513032;28;1738;-63
2022/11/11 09:37:14;;;;;;;5.67;4.20;;;;;;;;;;514247;28;1402;-63
2022/11/11 09:37:29;;;;;;;5.47;4.10;;;;;;;;;;514380;28;1446;-63
2022/11/11 09:37:52;;;;;;;4.77;3.90;;;;;;;;;;512487;28;1445;-63
2022/11/11 09:38:08;;;;;;;5.60;3.80;;;;;;;;;;514855;28;1054;-63
2022/11/11 09:38:24;;;;;;;5.77;3.90;;;;;;;;;;511340;28;1133;-63
2022/11/11 09:38:39;;;;;;;4.85;3.70;;;;;;;;;;511172;28;1584;-64
2022/11/11 09:38:54;;;;;;;4.63;3.80;;;;;;;;;;510481;28;1309;-63
2022/11/11 09:39:09;;;;;;;4.67;3.83;;;;;;;;;;511337;28;1375;-63
2022/11/11 09:39:25;;;;;;;4.55;3.80;;;;;;;;;;508864;28;1473;-63
2022/11/11 09:39:40;;;;;;;5.33;4.00;;;;;;;;;;510244;28;1090;-63
2022/11/11 09:39:55;;;;;;;5.60;4.00;;;;;;;;;;509304;28;1349;-63
2022/11/11 09:40:20;;;;;;;5.17;3.83;;;;;;;;;;509536;28;1605;-63
2022/11/11 09:40:58;;;;;;;5.85;3.78;;;;;;;;;;512471;28;1284;-63
2022/11/11 09:41:23;;;;;;;4.85;3.85;;;;;;;;;;512894;28;1570;-64
2022/11/11 09:41:54;;;;;;;5.47;3.80;;;;;;;;;;512353;28;1339;-64
2022/11/11 09:42:13;;;;;;;4.40;3.35;;;;;;;;;;512881;28;1272;-63
2022/11/11 09:42:35;;;;;;;4.72;3.42;;;;;;;;;;514911;28;1244;-64
2022/11/11 09:43:35;;;;;;;4.82;3.55;;;;;;;;;;514711;28;1506;-63
2022/11/11 09:43:53;;;;;;;5.47;3.70;;;;;;;;;;507330;29;1175;-63
2022/11/11 09:44:25;;;;;;;5.13;3.50;;;;;;;;;;507604;29;1177;-65
2022/11/11 09:44:46;;;;;;;5.72;3.40;;;;;;;;;;507703;28;1730;-63
2022/11/11 09:45:27;;;;;;;5.40;3.35;;;;;;;;;;511819;28;1487;-64
2022/11/11 09:46:02;;;;;;;4.15;3.30;;;;;;;;;;510146;28;1054;-63
2022/11/11 09:46:36;;;;;;;4.80;3.30;;;;;;;;;;508296;28;1467;-64
2022/11/11 09:47:00;;;;;;;4.40;3.20;;;;;;;;;;508959;28;1777;-64
2022/11/11 09:47:20;;;;;;;6.22;3.10;;;;;;;;;;511131;28;1907;-63
2022/11/11 09:47:49;;;;;;;6.15;3.20;;;;;;;;;;512294;28;1447;-63
2022/11/11 09:48:47;;;;;;;5.03;3.03;;;;;;;;;;513827;28;1328;-63
2022/11/11 09:49:27;;;;;;;4.40;3.20;;;;;;;;;;508480;28;1419;-64
2022/11/11 09:49:59;;;;;;;4.45;3.20;;;;;;;;;;509583;28;1269;-64
2022/11/11 09:50:22;;;;;;;4.55;3.28;;;;;;;;;;510098;28;1313;-64
2022/11/11 09:50:38;;;;;;;3.85;3.15;;;;;;;;;;507667;28;1490;-64
2022/11/11 09:50:58;;;;;;;4.22;3.10;;;;;;;;;;508488;28;1313;-64
2022/11/11 09:51:29;;;;;;;3.83;3.30;;;;;;;;;;508624;28;1357;-63
2022/11/11 09:51:51;;;;;;;3.83;3.22;;;;;;;;;;505856;29;2302;-63
2022/11/11 09:52:07;;;;;;;3.58;3.13;;;;;;;;;;506670;29;1334;-64
2022/11/11 09:52:44;;;;;;;4.20;3.10;;;;;;;;;;506314;29;1364;-64
2022/11/11 09:53:21;;;;;;;3.70;3.08;;;;;;;;;;507958;28;1063;-64
2022/11/11 09:53:41;;;;;;;4.13;3.00;;;;;;;;;;508463;28;1261;-64
2022/11/11 09:54:04;;;;;;;5.97;3.22;;;;;;;;;;507390;28;1484;-64
2022/11/11 09:54:30;;;;;;;4.15;3.05;;;;;;;;;;507294;28;1122;-63
2022/11/11 09:54:54;;;;;;;4.20;3.15;;;;;;;;;;507740;28;1602;-64
2022/11/11 09:55:37;;;;;;;3.97;3.00;;;;;;;;;;511278;28;1398;-62
2022/11/11 09:56:13;;;;;;;4.13;3.10;;;;;;;;;;515017;28;1355;-63
2022/11/11 09:56:28;;;;;;;5.03;3.40;;;;;;;;;;515136;28;1590;-63
2022/11/11 09:56:44;;;;;;;5.88;3.65;;;;;;;;;;516298;28;1440;-63
2022/11/11 09:57:05;;;;;;;6.85;3.67;;;;;;;;;;512174;28;1403;-63
2022/11/11 09:57:39;;;;;;;8.60;4.00;;;;;;;;;;512375;28;1210;-64
2022/11/11 09:58:03;;;;;;;7.30;4.18;;;;;;;;;;513776;28;1474;-63
2022/11/11 09:58:25;;;;;;;4.53;3.10;;;;;;;;;;513773;28;1320;-63
2022/11/11 09:58:45;;;;;;;4.35;3.10;;;;;;;;;;511425;28;1454;-62
2022/11/11 09:59:28;;;;;;;4.07;3.13;;;;;;;;;;511307;28;1371;-63
2022/11/11 09:59:51;;;;;;;3.85;2.97;;;;;;;;;;509713;28;1665;-64
2022/11/11 10:00:27;;;;;;;4.15;2.72;;;;;;;;;;510297;28;1065;-64
2022/11/11 10:00:46;;;;;;;4.25;2.90;;;;;;;;;;510071;28;1375;-63
2022/11/11 10:01:09;;;;;;;4.57;2.90;;;;;;;;;;513074;28;1233;-63
2022/11/11 10:01:27;;;;;;;4.47;2.90;;;;;;;;;;511111;28;1063;-63
2022/11/11 10:01:54;;;;;;;4.28;2.80;;;;;;;;;;514252;28;1123;-64
2022/11/11 10:02:27;;;;;;;4.10;2.78;;;;;;;;;;514619;28;1471;-64
2022/11/11 10:02:48;;;;;;;4.53;2.78;;;;;;;;;;514583;28;1800;-64
2022/11/11 10:03:09;;;;;;;4.55;2.80;;;;;;;;;;514449;28;1685;-63
2022/11/11 10:03:25;;;;;;;3.67;2.72;;;;;;;;;;514791;28;1394;-64
2022/11/11 10:03:46;;;;;;;4.40;2.95;;;;;;;;;;513048;28;1223;-63
2022/11/11 10:04:26;;;;;;;3.75;2.78;;;;;;;;;;515378;28;1414;-64
2022/11/11 10:04:42;;;;;;;3.90;2.78;;;;;;;;;;515659;28;1373;-64
2022/11/11 10:05:29;;;;;;;5.33;2.80;;;;;;;;;;513099;28;1159;-63
2022/11/11 10:05:51;;;;;;;5.13;2.50;;;;;;;;;;511002;28;1402;-63
2022/11/11 10:06:08;;;;;;;5.57;2.70;;;;;;;;;;515670;28;2003;-64
2022/11/11 10:06:30;;;;;;;4.30;2.80;;;;;;;;;;513748;28;1153;-64
2022/11/11 10:06:49;;;;;;;3.30;2.60;;;;;;;;;;514659;28;1403;-64
2022/11/11 10:07:23;;;;;;;2.92;2.53;;;;;;;;;;512171;28;1622;-63
2022/11/11 10:07:47;;;;;;;3.58;2.47;;;;;;;;;;514371;28;1760;-64
2022/11/11 10:08:17;;;;;;;2.75;2.25;;;;;;;;;;514971;28;1312;-64
2022/11/11 10:08:34;;;;;;;2.72;2.28;;;;;;;;;;514071;28;1069;-63
2022/11/11 10:09:01;;;;;;;3.22;2.20;;;;;;;;;;514511;28;1275;-62
2022/11/11 10:09:45;;;;;;;2.92;2.30;;;;;;;;;;514770;28;1669;-62
2022/11/11 10:10:14;;;;;;;2.95;2.10;;;;;;;;;;513484;28;1472;-62
2022/11/11 10:10:41;;;;;;;2.97;2.15;;;;;;;;;;513604;28;1332;-61
2022/11/11 10:10:58;;;;;;;3.35;2.30;;;;;;;;;;512056;28;1559;-61
2022/11/11 10:11:21;;;;;;;3.67;2.50;;;;;;;;;;511084;28;1121;-61
2022/11/11 10:11:56;;;;;;;3.80;2.40;;;;;;;;;;512496;28;1421;-62
2022/11/11 10:12:14;;;;;;;6.25;2.65;;;;;;;;;;512507;28;1240;-62
2022/11/11 10:12:39;;;;;;;8.43;3.45;;;;;;;;;;512072;28;1427;-61
2022/11/11 10:12:58;;;;;;;10.35;3.83;;;;;;;;;;512517;28;1125;-62
2022/11/11 10:13:19;;;;;;;12.20;4.70;;;;;;;;;;512437;28;1065;-62
2022/11/11 10:13:37;;;;;;;9.98;4.18;;;;;;;;;;514941;28;1320;-61
2022/11/11 10:13:54;;;;;;;8.80;3.70;;;;;;;;;;513623;28;1610;-62
2022/11/11 10:14:09;;;;;;;9.80;3.80;;;;;;;;;;514188;28;1128;-61
2022/11/11 10:14:32;;;;;;;10.40;4.10;;;;;;;;;;514850;28;1374;-61
2022/11/11 10:14:51;;;;;;;10.85;3.90;;;;;;;;;;514222;28;1219;-61
2022/11/11 10:15:12;;;;;;;8.70;3.80;;;;;;;;;;513523;28;1076;-61
2022/11/11 10:15:39;;;;;;;7.80;3.70;;;;;;;;;;515023;28;1420;-61
2022/11/11 10:16:31;;;;;;;5.70;3.10;;;;;;;;;;514759;28;1284;-61
2022/11/11 10:16:53;;;;;;;7.00;3.20;;;;;;;;;;515008;28;1673;-61